Main page
METAR-TAF:

METAR-TAF

Airports :

Stavanger Airport. Sola

Stavanger, Norway

latitude: 58-53N, longitude: 005-38E, elevation: 0 m

Current weather observation

The report was made 24 minutes ago, at 16:50 UTC
Wind 11 kt from the South/Southwest
Temperature 16°C
Humidity 72%
Pressure 1012 hPa
Visibility 10 km or more
no clouds below 1500 m and no cumulonimbus

METAR: ENZV 211650Z 21011KT CAVOK 16/11 Q1012 NOSIG

Time: 19:14 (17:14 UTC)

Forecast

The report was made 6 hours and 14 minutes ago, at 11:00 UTC
Forecast valid from 21 at 12 UTC to 22 at 12 UTC
Wind 10 kt from the South
Visibility 10 km or more
Few clouds at a height of 2500 ft
Becoming
from 21 at 18 UTC to 21 at 20 UTC
Wind 5 kt from variable directions
Probability 30% :
Temporary
from 22 at 01 UTC to 22 at 06 UTC
Broken clouds at a height of 700 ft
Scattered clouds at a height of 2000 ft, Cumulonimbus.
rain showers,

TAF: ENZV 211100Z 2112/2212 19010KT 9999 FEW025 BECMG 2118/2120 VRB05KT PROB30 TEMPO 2201/2206 SHRA BKN007 SCT020CB

Weather observations and forecasts of more than 4000 airports (METAR and TAF reports).

The available stations are represented by yellow and red dots on the map.

Hover mouse over dot to see the name of the station.

Then click to see weather observations and forecasts.

To change the map : click on the green buttons with a black cross to zoom in, on the green button with a dash to zoom out, or on the green arrows for adjacent maps.


METAR-TAF: